createdAt,value
2022-10-21T00:04:17.197Z,3.92
2022-10-21T00:09:19.001Z,4.25
2022-10-21T00:14:20.946Z,4.63
2022-10-21T00:19:22.882Z,3.85
2022-10-21T00:24:24.771Z,4.30
2022-10-21T00:29:26.586Z,3.85
2022-10-21T00:34:30.885Z,4.25
2022-10-21T00:39:33.218Z,4.15
2022-10-21T00:44:35.998Z,3.67
2022-10-21T00:49:42.397Z,4.82
2022-10-21T00:54:47.015Z,4.13
2022-10-21T00:59:53.871Z,4.45
2022-10-21T01:04:59.810Z,4.43
2022-10-21T01:10:01.805Z,4.32
2022-10-21T01:15:31.017Z,4.05
2022-10-21T01:21:03.709Z,4.88
2022-10-21T01:26:14.517Z,4.63
2022-10-21T01:31:41.277Z,3.97
2022-10-21T01:36:57.860Z,4.57
2022-10-21T01:42:25.888Z,5.03
2022-10-21T01:47:34.089Z,5.45
2022-10-21T01:52:36.369Z,5.68
2022-10-21T01:57:44.594Z,5.72
2022-10-21T02:07:51.059Z,5.63
2022-10-21T02:12:56.989Z,5.30
2022-10-21T02:18:08.033Z,4.57
2022-10-21T02:23:15.662Z,4.53
2022-10-21T02:28:19.268Z,5.35
2022-10-21T02:33:43.265Z,4.45
2022-10-21T02:38:49.615Z,4.30
2022-10-21T02:49:16.439Z,5.07
2022-10-21T02:54:18.233Z,4.70
2022-10-21T02:59:20.173Z,5.30
2022-10-21T03:04:22.127Z,5.72
2022-10-21T03:09:23.966Z,5.28
2022-10-21T03:14:25.733Z,5.15
2022-10-21T03:19:27.493Z,4.28
2022-10-21T03:24:29.329Z,5.00
2022-10-21T03:29:31.278Z,4.93
2022-10-21T03:34:33.066Z,5.70
2022-10-21T03:39:34.877Z,5.05
2022-10-21T03:44:36.736Z,5.50
2022-10-21T03:49:38.540Z,5.55
2022-10-21T03:54:40.537Z,5.57
2022-10-21T03:59:42.396Z,5.07
2022-10-21T04:04:44.816Z,5.90
2022-10-21T04:09:46.644Z,5.85
2022-10-21T04:14:48.423Z,5.72
2022-10-21T04:19:50.169Z,7.13
2022-10-21T04:24:52.187Z,6.45
2022-10-21T04:29:54.015Z,6.47
2022-10-21T04:34:55.798Z,6.95
2022-10-21T04:39:57.618Z,6.60
2022-10-21T04:44:59.424Z,6.60
2022-10-21T04:50:01.395Z,6.32
2022-10-21T04:55:03.927Z,6.60
2022-10-21T05:00:07.924Z,6.63
2022-10-21T05:05:10.236Z,6.57
2022-10-21T05:10:12.031Z,6.53
2022-10-21T05:15:14.777Z,6.93
2022-10-21T05:20:16.862Z,6.88
2022-10-21T05:25:19.631Z,7.78
2022-10-21T05:30:21.897Z,7.80
2022-10-21T05:35:23.748Z,8.05
2022-10-21T05:40:25.624Z,6.72
2022-10-21T05:45:27.752Z,7.72
2022-10-21T05:50:29.526Z,7.53
2022-10-21T05:55:31.365Z,7.35
2022-10-21T06:00:33.526Z,8.02
2022-10-21T06:05:35.494Z,7.72
2022-10-21T06:10:37.303Z,7.38
2022-10-21T06:15:39.128Z,8.13
2022-10-21T06:20:40.821Z,6.97
2022-10-21T06:26:00.158Z,6.63
2022-10-21T06:31:02.074Z,6.72
2022-10-21T06:36:04.751Z,6.93
2022-10-21T06:41:12.328Z,6.20
2022-10-21T06:46:16.334Z,7.30
2022-10-21T06:51:22.557Z,7.05
2022-10-21T06:56:26.616Z,5.85
2022-10-21T07:01:41.769Z,7.07
2022-10-21T07:06:55.367Z,6.97
2022-10-21T07:11:57.209Z,7.15
2022-10-21T07:16:59.121Z,7.47
2022-10-21T07:22:04.046Z,7.20
2022-10-21T07:27:06.271Z,6.55
2022-10-21T07:32:08.550Z,7.70
2022-10-21T07:37:10.540Z,7.95
2022-10-21T07:42:12.451Z,7.03
2022-10-21T07:47:14.378Z,7.07
2022-10-21T07:52:16.347Z,7.45
2022-10-21T07:57:18.315Z,6.32
2022-10-21T08:02:20.598Z,6.45
2022-10-21T08:07:22.881Z,6.50
2022-10-21T08:12:25.640Z,5.95
2022-10-21T08:17:27.818Z,6.15
2022-10-21T08:22:29.931Z,6.40
2022-10-21T08:27:31.912Z,5.47
2022-10-21T08:32:33.941Z,6.57
2022-10-21T08:37:35.845Z,6.78
2022-10-21T08:42:42.816Z,7.72
2022-10-21T08:47:49.796Z,7.10
2022-10-21T08:53:00.109Z,6.93
2022-10-21T08:58:03.520Z,6.72
2022-10-21T09:03:28.732Z,7.22
2022-10-21T09:08:42.656Z,6.72
2022-10-21T09:13:51.557Z,7.00
2022-10-21T09:19:02.630Z,6.00
2022-10-21T09:24:13.802Z,6.97
2022-10-21T09:29:15.680Z,7.57
2022-10-21T09:34:29.565Z,8.00
2022-10-21T09:39:42.254Z,7.88
2022-10-21T09:44:45.679Z,6.78
2022-10-21T09:50:06.873Z,8.70
2022-10-21T09:55:14.222Z,7.45
2022-10-21T10:00:16.302Z,7.38
2022-10-21T10:05:33.553Z,7.75
2022-10-21T10:10:35.762Z,6.30
2022-10-21T10:15:37.674Z,8.00
2022-10-21T10:20:39.610Z,7.00
2022-10-21T10:25:41.503Z,6.68
2022-10-21T10:30:43.540Z,5.85
2022-10-21T10:36:00.473Z,6.78
2022-10-21T10:41:18.724Z,5.80
2022-10-21T10:46:34.057Z,5.70
2022-10-21T10:51:36.460Z,6.35
2022-10-21T10:56:43.411Z,4.93
2022-10-21T11:01:54.222Z,5.63
2022-10-21T11:07:13.470Z,5.80
2022-10-21T11:12:25.490Z,4.53
2022-10-21T11:17:39.070Z,3.72
2022-10-21T11:23:00.461Z,3.95
2022-10-21T11:28:29.968Z,4.32
2022-10-21T11:33:45.274Z,4.57
2022-10-21T11:39:13.213Z,4.43
2022-10-21T11:44:52.683Z,4.25
2022-10-21T11:50:16.562Z,4.80
2022-10-21T11:55:41.467Z,4.88
2022-10-21T12:01:17.379Z,5.13
2022-10-21T12:06:19.595Z,4.72
2022-10-21T12:11:27.999Z,4.68
2022-10-21T12:16:34.180Z,4.75
2022-10-21T12:21:39.387Z,4.65
2022-10-21T12:26:51.888Z,4.65
2022-10-21T12:32:07.788Z,4.32
2022-10-21T12:37:46.782Z,5.63
2022-10-21T12:42:59.227Z,6.18
2022-10-21T12:48:02.015Z,5.57
2022-10-21T12:53:03.747Z,5.32
2022-10-21T12:58:17.289Z,4.93
2022-10-21T13:03:22.107Z,5.15
2022-10-21T13:08:27.595Z,5.85
2022-10-21T13:13:39.743Z,5.60
2022-10-21T13:18:51.389Z,5.13
2022-10-21T13:23:54.982Z,5.20
2022-10-21T13:29:02.542Z,8.80
2022-10-21T13:34:04.943Z,7.72
2022-10-21T13:39:35.792Z,8.13
2022-10-21T13:44:41.033Z,8.23
2022-10-21T13:49:50.823Z,8.07
2022-10-21T13:55:24.231Z,6.68
2022-10-21T14:00:30.115Z,7.90
2022-10-21T14:05:37.383Z,9.10
2022-10-21T14:10:47.173Z,8.82
2022-10-21T14:15:49.641Z,7.30
2022-10-21T14:20:53.705Z,6.65
2022-10-21T14:26:04.343Z,6.22
2022-10-21T14:31:09.193Z,6.32
2022-10-21T14:36:15.207Z,5.72
2022-10-21T14:41:22.269Z,5.22
2022-10-21T14:46:24.703Z,4.43
2022-10-21T14:51:28.023Z,4.93
2022-10-21T14:56:35.128Z,4.60
2022-10-21T15:01:43.045Z,5.40
2022-10-21T15:12:18.773Z,4.80
2022-10-21T15:17:22.888Z,2.83
2022-10-21T15:22:29.161Z,3.28
2022-10-21T15:27:41.092Z,2.75
2022-10-21T15:32:45.212Z,3.17
2022-10-21T15:37:51.377Z,3.38
2022-10-21T15:42:53.313Z,3.65
2022-10-21T15:47:55.827Z,4.07
2022-10-21T15:52:57.820Z,4.18
2022-10-21T15:57:59.747Z,3.95
2022-10-21T16:03:02.196Z,4.28
2022-10-21T16:08:04.677Z,3.88
2022-10-21T16:13:06.688Z,3.67
2022-10-21T16:18:14.141Z,4.05
2022-10-21T16:23:15.962Z,3.85
2022-10-21T16:28:17.781Z,3.95
2022-10-21T16:33:19.602Z,4.35
2022-10-21T16:38:21.391Z,4.32
2022-10-21T16:43:24.067Z,4.38
2022-10-21T16:48:26.047Z,5.13
2022-10-21T16:53:29.187Z,5.07
2022-10-21T16:58:31.349Z,4.97
2022-10-21T17:03:34.022Z,4.72
2022-10-21T17:08:36.474Z,3.17
2022-10-21T17:13:38.450Z,3.45
2022-10-21T17:18:40.349Z,3.42
2022-10-21T17:23:42.253Z,4.22
2022-10-21T17:28:44.749Z,3.95
2022-10-21T17:33:47.412Z,3.65
2022-10-21T17:38:49.689Z,3.80
2022-10-21T17:43:51.551Z,4.35
2022-10-21T17:48:55.693Z,4.45
2022-10-21T17:53:57.516Z,5.15
2022-10-21T17:59:01.345Z,5.88
2022-10-21T18:04:03.709Z,4.10
2022-10-21T18:09:08.542Z,5.03
2022-10-21T18:14:10.867Z,4.30
2022-10-21T18:19:12.924Z,3.88
2022-10-21T18:24:14.710Z,5.72
2022-10-21T18:29:16.851Z,5.05
2022-10-21T18:34:18.763Z,4.50
2022-10-21T18:39:20.754Z,4.88
2022-10-21T18:44:22.567Z,3.97
2022-10-21T18:49:24.359Z,3.80
2022-10-21T18:54:26.163Z,3.67
2022-10-21T18:59:27.962Z,3.15
2022-10-21T19:04:29.929Z,3.35
2022-10-21T19:09:31.814Z,3.33
2022-10-21T19:14:34.080Z,3.30
2022-10-21T19:19:39.345Z,4.40
2022-10-21T19:24:41.749Z,3.47
2022-10-21T19:29:43.584Z,3.72
2022-10-21T19:34:45.440Z,4.05
2022-10-21T19:39:47.222Z,3.22
2022-10-21T19:44:48.931Z,2.60
2022-10-21T19:49:50.899Z,2.80
2022-10-21T19:54:53.079Z,2.53
2022-10-21T19:59:56.265Z,2.70
2022-10-21T20:04:58.057Z,2.72
2022-10-21T20:09:59.780Z,2.20
2022-10-21T20:15:01.563Z,2.78
2022-10-21T20:20:04.053Z,2.17
2022-10-21T20:25:06.167Z,2.33
2022-10-21T20:30:09.588Z,2.78
2022-10-21T20:35:11.380Z,1.90
2022-10-21T20:40:13.207Z,2.05
2022-10-21T20:45:15.079Z,2.45
2022-10-21T20:50:16.941Z,1.98
2022-10-21T20:55:19.624Z,2.63
2022-10-21T21:00:21.341Z,2.10
2022-10-21T21:05:23.104Z,2.35
2022-10-21T21:10:24.894Z,1.90
2022-10-21T21:15:26.874Z,1.83
2022-10-21T21:20:28.646Z,1.80
2022-10-21T21:25:30.475Z,2.10
2022-10-21T21:30:32.204Z,1.83
2022-10-21T21:35:33.911Z,1.50
2022-10-21T21:40:35.607Z,2.05
2022-10-21T21:45:37.537Z,1.73
2022-10-21T21:50:40.340Z,1.65
2022-10-21T21:55:42.491Z,1.77
2022-10-21T22:00:44.426Z,1.77
2022-10-21T22:05:46.274Z,2.03
2022-10-21T22:10:48.066Z,2.03
2022-10-21T22:15:49.879Z,1.60
2022-10-21T22:20:51.904Z,1.70
2022-10-21T22:25:54.627Z,1.50
2022-10-21T22:31:04.592Z,1.30
2022-10-21T22:36:06.679Z,1.48
2022-10-21T22:41:12.260Z,1.60
2022-10-21T22:46:33.251Z,1.42
2022-10-21T22:51:36.110Z,1.42
2022-10-21T22:56:38.747Z,1.35
2022-10-21T23:01:40.619Z,1.25
2022-10-21T23:06:42.467Z,1.65
2022-10-21T23:11:46.744Z,2.00
2022-10-21T23:16:48.839Z,1.58
2022-10-21T23:21:50.564Z,1.55
2022-10-21T23:26:52.800Z,1.52
2022-10-21T23:31:57.608Z,1.63
2022-10-21T23:36:59.397Z,1.30
2022-10-21T23:42:01.240Z,1.40
2022-10-21T23:47:03.083Z,1.45
2022-10-21T23:52:06.262Z,1.42
2022-10-21T23:57:08.241Z,1.48
